createdAt,value
2023-05-05T00:01:33.198Z,15.40
2023-05-05T00:04:05.780Z,14.30
2023-05-05T00:06:38.050Z,14.30
2023-05-05T00:09:10.197Z,13.40
2023-05-05T00:11:42.383Z,14.50
2023-05-05T00:14:14.541Z,13.50
2023-05-05T00:16:47.269Z,13.90
2023-05-05T00:19:19.613Z,15.00
2023-05-05T00:21:52.221Z,14.00
2023-05-05T00:24:24.746Z,14.90
2023-05-05T00:26:57.168Z,14.90
2023-05-05T00:29:29.428Z,15.00
2023-05-05T00:32:02.122Z,14.90
2023-05-05T00:34:34.368Z,13.90
2023-05-05T00:37:06.513Z,12.50
2023-05-05T00:39:38.691Z,12.30
2023-05-05T00:42:11.129Z,11.80
2023-05-05T00:44:44.991Z,12.20
2023-05-05T00:47:17.947Z,12.00
2023-05-05T00:49:50.241Z,12.10
2023-05-05T00:52:22.642Z,11.30
2023-05-05T00:54:54.868Z,11.60
2023-05-05T00:57:28.636Z,11.00
2023-05-05T01:00:02.493Z,11.00
2023-05-05T01:02:34.765Z,11.00
2023-05-05T01:05:07.937Z,12.80
2023-05-05T01:07:54.061Z,14.20
2023-05-05T01:10:38.039Z,12.70
2023-05-05T01:13:25.036Z,15.00
2023-05-05T01:16:09.216Z,11.70
2023-05-05T01:18:48.958Z,12.40
2023-05-05T01:21:27.585Z,12.60
2023-05-05T01:24:29.752Z,12.90
2023-05-05T01:27:21.285Z,12.70
2023-05-05T01:30:09.950Z,13.70
2023-05-05T01:32:48.987Z,13.20
2023-05-05T01:35:28.461Z,12.90
2023-05-05T01:38:07.336Z,12.50
2023-05-05T01:40:43.753Z,13.40
2023-05-05T01:43:17.994Z,11.80
2023-05-05T01:45:50.968Z,11.30
2023-05-05T01:48:24.544Z,12.90
2023-05-05T01:50:57.076Z,11.70
2023-05-05T01:53:30.532Z,13.90
2023-05-05T01:56:05.325Z,12.50
2023-05-05T01:58:38.774Z,12.50
2023-05-05T02:01:12.483Z,13.10
2023-05-05T02:03:48.212Z,12.10
2023-05-05T02:06:22.072Z,10.50
2023-05-05T02:08:58.516Z,11.70
2023-05-05T02:11:31.186Z,11.80
2023-05-05T02:14:04.313Z,11.90
2023-05-05T02:16:37.460Z,14.10
2023-05-05T02:19:12.315Z,14.40
2023-05-05T02:21:44.920Z,13.70
2023-05-05T02:24:17.394Z,14.40
2023-05-05T02:30:03.162Z,13.30
2023-05-05T02:32:38.845Z,13.80
2023-05-05T02:35:21.504Z,14.20
2023-05-05T02:38:02.705Z,13.80
2023-05-05T02:40:39.422Z,15.60
2023-05-05T02:43:16.806Z,19.40
2023-05-05T02:45:49.228Z,17.80
2023-05-05T02:48:22.296Z,19.30
2023-05-05T02:50:55.057Z,16.30
2023-05-05T02:53:35.678Z,15.30
2023-05-05T02:56:25.157Z,13.80
2023-05-05T02:59:05.796Z,14.20
2023-05-05T03:01:49.072Z,17.30
2023-05-05T03:04:29.020Z,16.40
2023-05-05T03:07:11.894Z,14.40
2023-05-05T03:09:48.104Z,14.30
2023-05-05T03:12:26.963Z,12.70
2023-05-05T03:15:14.617Z,11.00
2023-05-05T03:17:47.546Z,12.00
2023-05-05T03:20:21.651Z,11.90
2023-05-05T03:22:54.919Z,14.30
2023-05-05T03:25:44.898Z,12.60
2023-05-05T03:28:21.939Z,13.50
2023-05-05T03:31:00.826Z,13.00
2023-05-05T03:33:37.347Z,13.00
2023-05-05T03:36:10.328Z,12.80
2023-05-05T03:38:43.115Z,14.50
2023-05-05T03:41:15.524Z,12.40
2023-05-05T03:43:47.780Z,12.50
2023-05-05T03:46:20.134Z,12.50
2023-05-05T03:48:53.014Z,12.70
2023-05-05T03:51:25.669Z,13.60
2023-05-05T03:53:58.122Z,11.80
2023-05-05T03:56:30.728Z,12.00
2023-05-05T03:59:03.229Z,11.70
2023-05-05T04:01:35.689Z,11.00
2023-05-05T04:04:09.616Z,11.80
2023-05-05T04:06:41.858Z,13.00
2023-05-05T04:09:14.670Z,11.60
2023-05-05T04:11:49.170Z,12.60
2023-05-05T04:14:21.666Z,12.30
2023-05-05T04:16:53.861Z,11.90
2023-05-05T04:19:26.444Z,11.50
2023-05-05T04:21:58.791Z,11.10
2023-05-05T04:24:32.648Z,11.60
2023-05-05T04:27:05.252Z,11.60
2023-05-05T04:29:37.439Z,14.60
2023-05-05T04:32:09.807Z,14.90
2023-05-05T04:34:42.363Z,13.80
2023-05-05T04:37:14.925Z,14.80
2023-05-05T04:39:47.271Z,15.60
2023-05-05T04:42:22.217Z,15.80
2023-05-05T04:44:55.295Z,18.10
2023-05-05T04:47:28.311Z,18.60
2023-05-05T04:50:01.071Z,17.70
2023-05-05T04:52:34.338Z,18.70
2023-05-05T04:55:07.520Z,19.40
2023-05-05T04:57:39.622Z,19.30
2023-05-05T05:00:13.629Z,18.80
2023-05-05T05:02:45.899Z,20.20
2023-05-05T05:05:18.390Z,20.10
2023-05-05T05:07:51.113Z,21.20
2023-05-05T05:10:23.702Z,21.50
2023-05-05T05:12:55.907Z,18.80
2023-05-05T05:15:28.761Z,20.20
2023-05-05T05:18:05.267Z,20.80
2023-05-05T05:20:38.381Z,19.60
2023-05-05T05:23:10.884Z,17.50
2023-05-05T05:25:47.116Z,19.30
2023-05-05T05:28:20.161Z,17.80
2023-05-05T05:30:56.338Z,18.90
2023-05-05T05:33:28.951Z,17.90
2023-05-05T05:36:01.545Z,18.50
2023-05-05T05:38:34.074Z,16.40
2023-05-05T05:41:09.613Z,16.60
2023-05-05T05:43:42.688Z,14.60
2023-05-05T05:46:14.969Z,16.90
2023-05-05T05:48:48.350Z,15.00
2023-05-05T05:51:20.539Z,13.50
2023-05-05T05:57:00.301Z,8.20
2023-05-05T05:59:33.164Z,8.00
2023-05-05T06:02:08.108Z,8.00
2023-05-05T06:04:40.553Z,8.00
2023-05-05T06:07:13.188Z,8.60
2023-05-05T06:12:52.931Z,8.20
2023-05-05T06:15:25.957Z,8.50
2023-05-05T06:17:58.583Z,9.50
2023-05-05T06:20:31.401Z,8.70
2023-05-05T06:23:03.617Z,7.20
2023-05-05T06:25:38.093Z,7.00
2023-05-05T06:28:10.243Z,6.60
2023-05-05T06:30:42.308Z,7.20
2023-05-05T06:33:14.467Z,6.50
2023-05-05T06:35:47.871Z,6.90
2023-05-05T06:38:20.381Z,6.60
2023-05-05T06:40:52.515Z,6.80
2023-05-05T06:43:24.722Z,6.60
2023-05-05T06:46:00.320Z,6.50
2023-05-05T06:48:32.460Z,6.00
2023-05-05T06:51:04.706Z,6.20
2023-05-05T06:53:36.890Z,5.80
2023-05-05T06:56:09.946Z,5.50
2023-05-05T06:58:42.558Z,10.20
2023-05-05T07:01:15.012Z,6.10
2023-05-05T07:03:47.580Z,4.00
2023-05-05T07:06:19.692Z,3.90
2023-05-05T07:08:51.878Z,3.60
2023-05-05T07:11:24.129Z,3.20
2023-05-05T07:13:56.729Z,3.00
2023-05-05T07:16:28.835Z,3.00
2023-05-05T07:19:00.962Z,3.00
2023-05-05T07:21:35.432Z,3.40
2023-05-05T07:24:08.556Z,3.20
2023-05-05T07:26:40.690Z,3.50
2023-05-05T07:29:15.866Z,3.00
2023-05-05T07:31:48.034Z,3.00
2023-05-05T07:34:20.318Z,3.20
2023-05-05T07:36:52.620Z,2.80
2023-05-05T07:39:24.753Z,3.20
2023-05-05T07:41:56.936Z,3.10
2023-05-05T07:44:29.226Z,2.70
2023-05-05T07:47:01.304Z,2.40
2023-05-05T07:49:33.456Z,3.20
2023-05-05T07:52:05.962Z,3.00
2023-05-05T07:54:38.097Z,3.30
2023-05-05T07:57:10.295Z,3.00
2023-05-05T07:59:43.839Z,2.70
2023-05-05T08:02:17.274Z,3.40
2023-05-05T08:04:50.218Z,3.20
2023-05-05T08:10:30.619Z,2.90
2023-05-05T08:13:03.114Z,3.20
2023-05-05T08:15:35.365Z,3.20
2023-05-05T08:18:11.166Z,2.60
2023-05-05T08:20:43.501Z,2.50
2023-05-05T08:23:15.609Z,2.80
2023-05-05T08:25:50.927Z,2.70
2023-05-05T08:28:26.605Z,3.00
2023-05-05T08:30:59.419Z,3.20
2023-05-05T08:33:32.039Z,3.10
2023-05-05T08:36:04.564Z,3.10
2023-05-05T08:38:37.069Z,2.70
2023-05-05T08:41:14.309Z,3.10
2023-05-05T08:43:49.647Z,3.20
2023-05-05T08:46:23.167Z,2.60
2023-05-05T08:48:57.488Z,2.90
2023-05-05T08:51:34.807Z,2.90
2023-05-05T08:54:11.780Z,3.00
2023-05-05T08:56:45.585Z,2.70
2023-05-05T08:59:20.195Z,2.70
2023-05-05T09:01:57.684Z,2.70
2023-05-05T09:04:30.001Z,2.40
2023-05-05T09:07:02.706Z,3.20
2023-05-05T09:09:35.044Z,2.90
2023-05-05T09:12:08.129Z,2.50
2023-05-05T09:14:40.335Z,2.90
2023-05-05T09:17:26.477Z,2.80
2023-05-05T09:20:10.753Z,2.40
2023-05-05T09:22:44.616Z,2.40
2023-05-05T09:25:18.338Z,2.60
2023-05-05T09:27:51.700Z,2.10
2023-05-05T09:30:28.081Z,2.70
2023-05-05T09:33:02.342Z,2.30
2023-05-05T09:35:51.711Z,2.60
2023-05-05T09:38:25.760Z,2.60
2023-05-05T09:40:58.915Z,2.40
2023-05-05T09:43:31.672Z,2.50
2023-05-05T09:46:10.548Z,2.40
2023-05-05T09:48:42.630Z,2.70
2023-05-05T09:51:14.772Z,2.40
2023-05-05T09:53:46.986Z,2.30
2023-05-05T09:56:20.850Z,3.00
2023-05-05T09:59:09.390Z,2.70
2023-05-05T10:01:43.632Z,2.70
2023-05-05T10:04:28.493Z,2.70
2023-05-05T10:07:01.441Z,2.00
2023-05-05T10:09:33.734Z,2.60
2023-05-05T10:12:06.882Z,2.40
2023-05-05T10:14:39.569Z,2.50
2023-05-05T10:17:13.464Z,2.40
2023-05-05T10:19:46.642Z,2.60
2023-05-05T10:22:23.525Z,2.30
2023-05-05T10:25:03.690Z,2.50
2023-05-05T10:27:43.880Z,2.40
2023-05-05T10:30:23.827Z,2.50
2023-05-05T10:33:14.176Z,3.40
2023-05-05T10:36:02.196Z,2.50
2023-05-05T10:38:34.909Z,2.60
2023-05-05T10:41:08.013Z,2.50
2023-05-05T10:43:41.801Z,2.60
2023-05-05T10:46:16.718Z,3.10
2023-05-05T10:48:57.049Z,2.50
2023-05-05T10:51:41.046Z,2.40
2023-05-05T10:54:29.576Z,2.50
2023-05-05T10:57:05.046Z,2.40
2023-05-05T10:59:44.148Z,3.00
2023-05-05T11:02:27.307Z,2.20
2023-05-05T11:05:18.377Z,2.10
2023-05-05T11:08:16.408Z,2.20
2023-05-05T11:10:51.293Z,2.40
2023-05-05T11:13:23.937Z,3.00
2023-05-05T11:15:58.268Z,3.10
2023-05-05T11:18:36.048Z,2.60
2023-05-05T11:21:19.494Z,2.50
2023-05-05T11:23:53.233Z,2.20
2023-05-05T11:26:52.556Z,2.20
2023-05-05T11:29:25.865Z,2.20
2023-05-05T11:32:14.382Z,2.30
2023-05-05T11:34:53.611Z,2.20
2023-05-05T11:37:28.495Z,2.70
2023-05-05T11:40:11.900Z,2.50
2023-05-05T11:42:44.346Z,2.50
2023-05-05T11:45:30.158Z,2.10
2023-05-05T11:48:28.105Z,2.30
2023-05-05T11:51:05.487Z,1.90
2023-05-05T11:53:38.406Z,2.30
2023-05-05T11:56:12.349Z,2.10
2023-05-05T11:58:44.603Z,2.50
2023-05-05T12:01:17.378Z,2.40
2023-05-05T12:03:50.178Z,2.80
2023-05-05T12:06:22.711Z,2.40
2023-05-05T12:08:55.030Z,2.40
2023-05-05T12:11:27.963Z,2.00
2023-05-05T12:14:13.222Z,2.30
2023-05-05T12:16:56.991Z,2.50
2023-05-05T12:19:33.106Z,2.50
2023-05-05T12:22:06.232Z,2.60
2023-05-05T12:24:38.907Z,2.70
2023-05-05T12:27:14.525Z,2.60
2023-05-05T12:29:46.747Z,2.30
2023-05-05T12:32:25.871Z,2.60
2023-05-05T12:34:58.512Z,2.10
2023-05-05T12:37:30.833Z,2.30
2023-05-05T12:40:03.975Z,2.70
2023-05-05T12:42:41.129Z,1.90
2023-05-05T12:45:19.299Z,2.60
2023-05-05T12:47:51.609Z,2.20
2023-05-05T12:50:34.314Z,9.70
2023-05-05T12:53:06.848Z,7.70
2023-05-05T12:55:56.872Z,3.40
2023-05-05T12:58:30.614Z,2.90
2023-05-05T13:01:15.018Z,2.20
2023-05-05T13:03:49.184Z,2.80
2023-05-05T13:06:26.191Z,2.20
2023-05-05T13:08:58.397Z,2.10
2023-05-05T13:11:30.659Z,2.70
2023-05-05T13:14:02.746Z,2.20
2023-05-05T13:16:34.805Z,2.30
2023-05-05T13:19:06.973Z,2.60
2023-05-05T13:21:39.467Z,2.70
2023-05-05T13:24:21.275Z,2.20
2023-05-05T13:26:58.026Z,2.30
2023-05-05T13:29:31.668Z,2.10
2023-05-05T13:32:04.255Z,2.00
2023-05-05T13:34:54.197Z,2.90
2023-05-05T13:37:26.389Z,2.40
2023-05-05T13:40:00.307Z,2.10
2023-05-05T13:42:32.364Z,2.00
2023-05-05T13:45:04.660Z,1.70
2023-05-05T13:47:36.730Z,4.10
2023-05-05T13:50:10.323Z,2.60
2023-05-05T13:52:42.966Z,2.80
2023-05-05T13:55:17.533Z,3.20
2023-05-05T13:57:49.637Z,2.50
2023-05-05T14:00:23.374Z,1.80
2023-05-05T14:02:55.647Z,2.10
2023-05-05T14:05:28.103Z,2.20
2023-05-05T14:08:00.702Z,2.10
2023-05-05T14:10:32.851Z,2.50
2023-05-05T14:13:04.969Z,2.10
2023-05-05T14:15:36.984Z,2.70
2023-05-05T14:18:09.712Z,2.00
2023-05-05T14:20:41.821Z,2.30
2023-05-05T14:23:13.794Z,2.40
2023-05-05T14:25:45.850Z,2.60
2023-05-05T14:28:18.367Z,2.30
2023-05-05T14:30:50.487Z,2.60
2023-05-05T14:33:23.367Z,2.50
2023-05-05T14:35:56.596Z,2.40
2023-05-05T14:38:31.485Z,2.30
2023-05-05T14:41:04.776Z,2.30
2023-05-05T14:43:36.918Z,2.50
2023-05-05T14:52:18.395Z,2.10
2023-05-05T14:54:50.402Z,2.20
2023-05-05T14:57:22.524Z,5.60
2023-05-05T14:59:54.678Z,2.90
2023-05-05T15:02:26.889Z,2.10
2023-05-05T15:04:58.968Z,2.60
2023-05-05T15:07:31.023Z,2.50
2023-05-05T15:10:05.303Z,3.10
2023-05-05T15:12:37.614Z,3.50
2023-05-05T15:15:11.383Z,2.60
2023-05-05T15:17:44.256Z,3.40
2023-05-05T15:20:16.562Z,3.00
2023-05-05T15:22:55.262Z,2.90
2023-05-05T15:25:27.865Z,2.60
2023-05-05T15:28:01.051Z,2.90
2023-05-05T15:30:33.510Z,2.70
2023-05-05T15:33:05.715Z,2.40
2023-05-05T15:35:37.789Z,2.70
2023-05-05T15:38:10.172Z,2.40
2023-05-05T15:40:43.082Z,2.60
2023-05-05T15:43:15.491Z,2.70
2023-05-05T15:45:47.954Z,3.20
2023-05-05T15:48:19.896Z,2.30
2023-05-05T15:50:51.977Z,2.40
2023-05-05T15:53:24.163Z,2.20
2023-05-05T15:55:56.666Z,2.30
2023-05-05T15:58:30.547Z,3.00
2023-05-05T16:01:03.618Z,2.30
2023-05-05T16:03:36.624Z,2.50
2023-05-05T16:06:10.165Z,2.40
2023-05-05T16:08:44.670Z,2.30
2023-05-05T16:11:16.944Z,2.30
2023-05-05T16:13:49.012Z,2.70
2023-05-05T16:16:22.300Z,2.40
2023-05-05T16:18:54.411Z,3.30
2023-05-05T16:21:27.669Z,2.80
2023-05-05T16:24:00.056Z,4.70
2023-05-05T16:26:35.955Z,2.70
2023-05-05T16:29:08.141Z,3.00
2023-05-05T16:31:40.765Z,2.40
2023-05-05T16:34:13.135Z,2.40
2023-05-05T16:36:45.225Z,2.70
2023-05-05T16:39:19.992Z,2.60
2023-05-05T16:41:52.074Z,3.30
2023-05-05T16:44:24.408Z,2.60
2023-05-05T16:46:56.442Z,2.50
2023-05-05T16:49:28.701Z,5.00
2023-05-05T16:52:01.517Z,27.40
2023-05-05T16:54:34.403Z,39.90
2023-05-05T16:57:07.101Z,6.20
2023-05-05T16:59:39.138Z,3.80
2023-05-05T17:02:11.612Z,4.80
2023-05-05T17:04:43.876Z,3.70
2023-05-05T17:07:15.935Z,3.00
2023-05-05T17:09:48.201Z,3.20
2023-05-05T17:12:20.269Z,3.00
2023-05-05T17:14:52.506Z,3.80
2023-05-05T17:17:24.577Z,4.10
2023-05-05T17:19:56.889Z,4.10
2023-05-05T17:22:28.980Z,4.20
2023-05-05T17:25:01.000Z,5.10
2023-05-05T17:27:33.131Z,5.40
2023-05-05T17:30:05.586Z,5.00
2023-05-05T17:32:37.725Z,5.10
2023-05-05T17:35:11.198Z,5.40
2023-05-05T17:37:43.809Z,4.60
2023-05-05T17:40:17.356Z,5.00
2023-05-05T17:42:49.383Z,5.30
2023-05-05T17:45:21.510Z,4.30
2023-05-05T17:47:54.112Z,5.50
2023-05-05T17:50:26.151Z,4.70
2023-05-05T17:52:58.543Z,5.00
2023-05-05T17:55:30.644Z,4.90
2023-05-05T17:58:02.619Z,5.90
2023-05-05T18:00:34.617Z,6.40
2023-05-05T18:03:07.162Z,5.70
2023-05-05T18:05:40.319Z,5.60
2023-05-05T18:08:12.534Z,5.60
2023-05-05T18:10:44.733Z,6.70
2023-05-05T18:13:16.977Z,5.20
2023-05-05T18:15:49.044Z,5.40
2023-05-05T18:18:21.151Z,5.80
2023-05-05T18:20:53.289Z,4.80
2023-05-05T18:23:25.539Z,4.80
2023-05-05T18:25:57.629Z,4.90
2023-05-05T18:28:29.692Z,4.30
2023-05-05T18:31:01.842Z,3.70
2023-05-05T18:33:33.961Z,4.50
2023-05-05T18:36:11.623Z,5.10
2023-05-05T18:38:43.607Z,4.70
2023-05-05T18:41:16.299Z,4.60
2023-05-05T18:43:48.735Z,5.20
2023-05-05T18:46:22.588Z,5.60
2023-05-05T18:48:54.672Z,5.40
2023-05-05T18:51:28.444Z,6.10
2023-05-05T18:54:03.064Z,6.80
2023-05-05T18:56:35.065Z,7.00
2023-05-05T18:59:09.117Z,7.70
2023-05-05T19:01:43.032Z,8.50
2023-05-05T19:04:30.089Z,9.10
2023-05-05T19:07:03.661Z,10.40
2023-05-05T19:09:36.087Z,10.50
2023-05-05T19:12:08.862Z,11.80
2023-05-05T19:14:41.250Z,12.90
2023-05-05T19:17:13.351Z,14.10
2023-05-05T19:19:45.465Z,14.00
2023-05-05T19:22:18.727Z,15.30
2023-05-05T19:24:50.811Z,17.40
2023-05-05T19:27:22.952Z,18.10
2023-05-05T19:29:55.030Z,15.10
2023-05-05T19:32:27.252Z,17.50
2023-05-05T19:34:59.690Z,21.80
2023-05-05T19:37:31.794Z,20.50
2023-05-05T19:40:06.724Z,23.80
2023-05-05T19:42:39.037Z,23.30
2023-05-05T19:45:11.870Z,23.70
2023-05-05T19:47:44.482Z,21.40
2023-05-05T19:50:16.645Z,22.10
2023-05-05T19:52:48.822Z,18.30
2023-05-05T19:55:22.924Z,18.00
2023-05-05T19:57:55.098Z,18.60
2023-05-05T20:00:27.406Z,17.70
2023-05-05T20:02:59.721Z,20.50
2023-05-05T20:05:31.993Z,24.30
2023-05-05T20:08:04.221Z,21.40
2023-05-05T20:10:36.652Z,20.00
2023-05-05T20:13:08.944Z,18.10
2023-05-05T20:15:41.319Z,16.20
2023-05-05T20:18:13.576Z,14.90
2023-05-05T20:20:45.754Z,15.20
2023-05-05T20:23:17.905Z,13.30
2023-05-05T20:25:50.417Z,13.70
2023-05-05T20:28:22.816Z,13.70
2023-05-05T20:30:54.902Z,13.90
2023-05-05T20:33:27.208Z,13.20
2023-05-05T20:35:59.423Z,11.30
2023-05-05T20:38:34.954Z,10.30
2023-05-05T20:41:07.222Z,9.70
2023-05-05T20:43:40.343Z,9.30
2023-05-05T20:46:13.890Z,8.90
2023-05-05T20:48:46.365Z,7.30
2023-05-05T20:51:18.481Z,9.50
2023-05-05T20:53:50.932Z,7.00
2023-05-05T20:56:23.029Z,7.20
2023-05-05T20:58:56.775Z,7.40
2023-05-05T21:01:29.473Z,7.70
2023-05-05T21:04:01.732Z,7.00
2023-05-05T21:06:35.105Z,7.50
2023-05-05T21:09:07.809Z,6.80
2023-05-05T21:11:40.104Z,6.60
2023-05-05T21:14:12.287Z,6.80
2023-05-05T21:16:44.591Z,7.30
2023-05-05T21:19:16.708Z,7.40
2023-05-05T21:21:49.227Z,6.90
2023-05-05T21:24:21.504Z,6.70
2023-05-05T21:26:53.583Z,7.80
2023-05-05T21:29:26.004Z,7.70
2023-05-05T21:31:58.246Z,7.20
2023-05-05T21:34:30.854Z,6.60
2023-05-05T21:37:03.246Z,7.00
2023-05-05T21:39:35.567Z,6.80
2023-05-05T21:42:08.207Z,7.20
2023-05-05T21:44:40.322Z,7.50
2023-05-05T21:47:12.502Z,7.20
2023-05-05T21:49:44.717Z,7.60
2023-05-05T21:52:16.918Z,7.00
2023-05-05T21:54:49.231Z,7.30
2023-05-05T21:57:21.484Z,8.70
2023-05-05T21:59:53.610Z,8.90
2023-05-05T22:02:25.850Z,8.80
2023-05-05T22:04:58.122Z,8.20
2023-05-05T22:07:31.717Z,8.60
2023-05-05T22:10:05.458Z,8.10
2023-05-05T22:12:37.734Z,7.70
2023-05-05T22:15:12.025Z,7.40
2023-05-05T22:17:44.140Z,7.70
2023-05-05T22:20:16.789Z,9.40
2023-05-05T22:22:48.873Z,8.10
2023-05-05T22:25:21.071Z,8.30
2023-05-05T22:27:53.193Z,7.90
2023-05-05T22:30:25.319Z,7.60
2023-05-05T22:32:57.646Z,7.90
2023-05-05T22:35:29.966Z,7.70
2023-05-05T22:38:02.658Z,8.00
2023-05-05T22:40:34.889Z,8.30
2023-05-05T22:43:07.155Z,8.70
2023-05-05T22:45:39.297Z,8.20
2023-05-05T22:48:14.091Z,7.90
2023-05-05T22:50:46.519Z,7.20
2023-05-05T22:53:21.071Z,8.00
2023-05-05T22:55:53.166Z,7.70
2023-05-05T22:58:25.902Z,7.60
2023-05-05T23:00:58.045Z,7.30
2023-05-05T23:03:30.215Z,9.10
2023-05-05T23:06:05.195Z,8.30
2023-05-05T23:08:37.399Z,8.50
2023-05-05T23:11:09.763Z,8.00
2023-05-05T23:13:41.932Z,7.40
2023-05-05T23:16:14.089Z,7.80
2023-05-05T23:18:49.355Z,8.80
2023-05-05T23:21:21.542Z,6.90
2023-05-05T23:23:55.051Z,7.10
2023-05-05T23:26:27.267Z,7.90
2023-05-05T23:28:59.625Z,7.80
2023-05-05T23:31:32.060Z,7.30
2023-05-05T23:34:04.357Z,7.10
2023-05-05T23:36:36.479Z,7.50
2023-05-05T23:39:08.999Z,7.90
2023-05-05T23:41:41.318Z,6.80
2023-05-05T23:44:13.414Z,7.40
2023-05-05T23:46:47.707Z,7.10
2023-05-05T23:49:20.218Z,7.40
2023-05-05T23:51:52.437Z,6.80
2023-05-05T23:54:27.662Z,7.60
2023-05-05T23:57:00.318Z,7.20
2023-05-05T23:59:32.552Z,7.50
